Time;durP1;ratioP1;P1;durP2;ratioP2;P2;SDS_P1;SDS_P2;PMS_P1;PMS_P2;Temp;Humidity;BMP_temperature;BMP_pressure;BME280_temperature;BME280_humidity;BME280_pressure;Samples;Min_cycle;Max_cycle;Signal;HPM_P1;HPM_P2
2021/03/08 00:00:24;;;;;;;3.35;2.03;;;20.60;40.50;;;;;;5030852;28;20474;-43
2021/03/08 00:02:51;;;;;;;3.25;1.90;;;20.60;40.40;;;;;;5030057;28;20134;-43
2021/03/08 00:05:17;;;;;;;3.60;2.10;;;20.60;40.40;;;;;;5013061;28;20137;-42
2021/03/08 00:07:45;;;;;;;4.85;2.03;;;20.50;40.30;;;;;;5023632;28;20108;-43
2021/03/08 00:10:12;;;;;;;4.25;1.98;;;20.60;40.30;;;;;;5013643;28;20355;-43
2021/03/08 00:12:37;;;;;;;6.45;2.58;;;20.60;40.40;;;;;;5029998;28;20064;-43
2021/03/08 00:15:05;;;;;;;1.98;1.42;;;20.60;40.30;;;;;;5018382;28;20065;-45
2021/03/08 00:17:30;;;;;;;2.97;2.10;;;20.60;40.30;;;;;;5027403;28;20029;-46
2021/03/08 00:19:56;;;;;;;2.47;1.90;;;20.60;40.30;;;;;;5007842;28;20032;-44
2021/03/08 00:22:22;;;;;;;3.30;1.80;;;20.60;40.30;;;;;;5023274;28;20481;-44
2021/03/08 00:24:47;;;;;;;2.63;1.63;;;20.60;40.30;;;;;;5034015;28;20021;-44
2021/03/08 00:27:13;;;;;;;4.07;2.00;;;20.60;40.30;;;;;;5033656;28;20084;-50
2021/03/08 00:29:39;;;;;;;2.80;1.90;;;20.60;40.30;;;;;;5032711;28;20036;-43
2021/03/08 00:32:07;;;;;;;4.28;2.00;;;20.60;40.20;;;;;;5016106;28;20037;-45
2021/03/08 00:34:34;;;;;;;3.65;1.80;;;20.60;40.20;;;;;;5025069;28;20593;-50
2021/03/08 00:36:59;;;;;;;2.13;1.73;;;20.60;40.20;;;;;;5026699;28;20113;-44
2021/03/08 00:39:25;;;;;;;3.03;1.77;;;20.60;40.20;;;;;;5034800;28;20112;-44
2021/03/08 00:41:50;;;;;;;3.25;2.30;;;20.60;40.20;;;;;;5033851;28;20825;-46
2021/03/08 00:44:16;;;;;;;3.60;2.03;;;20.60;40.20;;;;;;5021689;28;20034;-44
2021/03/08 00:46:42;;;;;;;2.47;1.95;;;20.60;40.10;;;;;;5032980;28;20462;-46
2021/03/08 00:49:07;;;;;;;2.30;1.77;;;20.60;40.20;;;;;;5034642;28;20037;-43
2021/03/08 00:51:33;;;;;;;4.45;2.22;;;20.60;40.20;;;;;;5033984;28;20061;-52
2021/03/08 00:53:58;;;;;;;3.58;1.90;;;20.60;40.10;;;;;;5023003;28;20435;-44
2021/03/08 00:56:24;;;;;;;5.10;2.42;;;20.60;40.20;;;;;;4997176;28;20025;-43
2021/03/08 00:58:50;;;;;;;3.03;2.05;;;20.60;40.10;;;;;;5020373;28;20083;-43
2021/03/08 01:01:15;;;;;;;3.22;2.03;;;20.60;40.10;;;;;;5034753;28;20042;-43
2021/03/08 01:03:41;;;;;;;2.88;1.65;;;20.60;40.10;;;;;;5014673;28;20026;-43
2021/03/08 01:06:07;;;;;;;3.40;1.83;;;20.60;40.10;;;;;;5029723;28;20029;-50
2021/03/08 01:08:32;;;;;;;5.07;2.42;;;20.60;40.10;;;;;;5014674;28;20075;-49
2021/03/08 01:10:58;;;;;;;2.35;1.80;;;20.60;40.10;;;;;;5033438;28;20033;-43
2021/03/08 01:13:25;;;;;;;3.83;2.15;;;20.60;40.00;;;;;;5033202;28;20029;-44
2021/03/08 01:15:51;;;;;;;3.00;1.80;;;20.60;40.00;;;;;;5015532;28;20030;-50
2021/03/08 01:18:18;;;;;;;3.33;2.15;;;20.60;40.00;;;;;;5029768;28;20059;-43
2021/03/08 01:20:44;;;;;;;2.88;1.88;;;20.60;40.00;;;;;;5032843;28;20028;-48
2021/03/08 01:23:11;;;;;;;3.85;2.17;;;20.60;40.00;;;;;;5033233;28;20033;-43
2021/03/08 01:25:37;;;;;;;4.63;2.15;;;20.60;40.00;;;;;;5032855;28;20084;-43
2021/03/08 01:28:03;;;;;;;2.50;1.98;;;20.60;40.00;;;;;;5033264;28;20057;-44
2021/03/08 01:30:32;;;;;;;3.58;2.00;;;20.60;40.00;;;;;;5033676;28;20025;-45
2021/03/08 01:32:58;;;;;;;2.80;2.08;;;20.60;40.00;;;;;;5032652;28;20052;-44
2021/03/08 01:35:24;;;;;;;2.88;1.73;;;20.60;39.90;;;;;;5022064;28;20470;-43
2021/03/08 01:37:50;;;;;;;2.75;2.05;;;20.60;39.90;;;;;;5027244;28;20056;-47
2021/03/08 01:40:17;;;;;;;2.83;2.17;;;20.60;39.90;;;;;;5033254;28;20454;-47
2021/03/08 01:42:44;;;;;;;2.47;1.75;;;20.60;39.90;;;;;;5031547;28;20045;-43
2021/03/08 01:45:13;;;;;;;2.25;1.98;;;20.60;39.90;;;;;;5019944;28;20028;-47
2021/03/08 01:47:39;;;;;;;3.20;1.63;;;20.60;39.90;;;;;;5015085;28;20513;-45
2021/03/08 01:50:08;;;;;;;3.45;2.35;;;20.60;39.80;;;;;;5015597;28;20524;-46
2021/03/08 01:52:34;;;;;;;2.53;1.90;;;20.60;40.50;;;;;;5032654;28;20492;-50
2021/03/08 01:55:00;;;;;;;4.07;2.00;;;20.60;39.80;;;;;;5032352;28;20039;-48
2021/03/08 01:57:26;;;;;;;1.85;1.60;;;20.60;39.80;;;;;;5033580;28;20084;-46
2021/03/08 01:59:52;;;;;;;3.95;2.13;;;20.60;39.80;;;;;;5015148;28;20455;-44
2021/03/08 02:02:18;;;;;;;2.45;1.90;;;20.60;39.80;;;;;;5013638;28;20045;-43
2021/03/08 02:04:44;;;;;;;2.38;1.70;;;20.60;39.70;;;;;;5020386;28;20379;-43
2021/03/08 02:07:09;;;;;;;2.88;2.03;;;20.60;39.80;;;;;;5028607;28;20025;-44
2021/03/08 02:09:35;;;;;;;3.25;2.08;;;20.60;39.70;;;;;;5032002;28;20057;-52
2021/03/08 02:12:15;;;;;;;2.17;1.70;;;20.60;39.70;;;;;;5032374;28;20025;-48
2021/03/08 02:14:52;;;;;;;3.05;2.00;;;20.60;39.70;;;;;;5032080;28;20034;-43
2021/03/08 02:17:24;;;;;;;2.88;1.88;;;20.60;39.70;;;;;;5013532;28;20101;-46
2021/03/08 02:20:16;;;;;;;2.67;2.00;;;20.60;39.70;;;;;;5012572;28;20029;-46
2021/03/08 02:23:07;;;;;;;2.63;1.77;;;20.60;39.80;;;;;;5031085;28;20033;-45
2021/03/08 02:26:21;;;;;;;2.83;1.95;;;20.60;39.70;;;;;;5032325;28;20096;-45
2021/03/08 02:29:08;;;;;;;3.08;1.90;;;20.60;39.70;;;;;;5014428;28;20470;-45
2021/03/08 02:31:34;;;;;;;3.58;2.10;;;20.60;39.70;;;;;;5033147;28;20148;-46
2021/03/08 02:34:14;;;;;;;3.15;1.92;;;20.60;39.70;;;;;;5031110;28;20042;-48
2021/03/08 02:36:43;;;;;;;2.53;1.90;;;20.60;39.70;;;;;;5023382;28;20038;-48
2021/03/08 02:39:31;;;;;;;2.70;2.00;;;20.60;39.70;;;;;;5028870;28;20052;-44
2021/03/08 02:41:59;;;;;;;3.30;2.00;;;20.60;39.80;;;;;;5031007;28;20041;-43
2021/03/08 02:44:31;;;;;;;3.55;1.70;;;20.60;39.70;;;;;;5027532;28;20057;-48
2021/03/08 02:46:59;;;;;;;2.22;1.77;;;20.60;39.80;;;;;;5030307;28;20029;-44
2021/03/08 02:49:28;;;;;;;2.78;2.10;;;20.60;39.70;;;;;;5032506;28;20037;-45
2021/03/08 02:51:59;;;;;;;3.95;2.17;;;20.60;39.70;;;;;;5031410;28;20041;-49
2021/03/08 02:54:27;;;;;;;4.50;2.20;;;20.60;39.70;;;;;;5014579;28;20422;-44
2021/03/08 02:56:57;;;;;;;4.15;2.00;;;20.60;39.70;;;;;;5031240;28;20260;-48
2021/03/08 02:59:24;;;;;;;3.67;1.95;;;20.60;39.70;;;;;;5032348;28;20467;-47
2021/03/08 03:01:51;;;;;;;4.00;2.08;;;20.60;39.70;;;;;;5031681;28;20033;-45
2021/03/08 03:04:20;;;;;;;4.53;2.03;;;20.60;39.70;;;;;;5030805;28;20036;-45
2021/03/08 03:06:47;;;;;;;2.83;1.88;;;20.60;39.70;;;;;;5016838;28;20022;-43
2021/03/08 03:09:15;;;;;;;3.28;2.10;;;20.60;39.70;;;;;;5030962;28;20026;-46
2021/03/08 03:11:44;;;;;;;2.92;2.00;;;20.60;39.60;;;;;;5030892;28;20391;-44
2021/03/08 03:14:11;;;;;;;3.60;2.28;;;20.60;39.60;;;;;;5030938;28;20351;-43
2021/03/08 03:16:40;;;;;;;3.03;1.73;;;20.60;39.60;;;;;;5030967;28;20382;-50
2021/03/08 03:19:08;;;;;;;3.00;2.10;;;20.60;39.60;;;;;;5029344;28;20029;-50
2021/03/08 03:21:36;;;;;;;4.60;2.10;;;20.60;39.60;;;;;;5019663;28;20069;-47
2021/03/08 03:24:02;;;;;;;5.28;2.15;;;20.60;39.60;;;;;;5020883;28;20100;-43
2021/03/08 03:26:29;;;;;;;5.72;2.28;;;20.70;39.70;;;;;;5022579;28;20442;-44
2021/03/08 03:28:55;;;;;;;7.40;2.72;;;20.60;39.60;;;;;;5018278;28;20148;-44
2021/03/08 03:31:22;;;;;;;3.53;2.10;;;20.60;39.60;;;;;;5019421;28;20456;-47
2021/03/08 03:33:49;;;;;;;3.35;2.13;;;20.60;39.50;;;;;;5004160;28;20467;-45
2021/03/08 03:36:15;;;;;;;4.07;2.55;;;20.70;39.60;;;;;;5018262;28;20053;-45
2021/03/08 03:38:41;;;;;;;3.88;1.95;;;20.60;39.50;;;;;;5022525;28;20040;-47
2021/03/08 03:41:07;;;;;;;3.95;2.10;;;20.60;39.40;;;;;;5020561;28;20086;-44
2021/03/08 03:43:34;;;;;;;3.40;2.42;;;20.70;39.50;;;;;;5020298;28;20541;-47
2021/03/08 03:46:02;;;;;;;3.45;2.33;;;20.60;39.40;;;;;;5019432;28;20084;-43
2021/03/08 03:48:28;;;;;;;3.50;2.05;;;20.60;39.40;;;;;;5018960;28;20454;-45
2021/03/08 03:50:53;;;;;;;2.88;2.10;;;20.60;39.40;;;;;;5019587;28;20062;-49
2021/03/08 03:53:19;;;;;;;3.10;2.10;;;20.60;39.40;;;;;;5021327;28;20082;-46
2021/03/08 03:55:45;;;;;;;4.18;2.30;;;20.60;39.30;;;;;;5019318;28;20053;-45
2021/03/08 03:58:16;;;;;;;5.53;2.88;;;20.60;39.40;;;;;;5019315;28;20014;-42
2021/03/08 04:01:02;;;;;;;4.43;1.85;;;20.60;39.30;;;;;;5018467;28;20494;-43
2021/03/08 04:03:49;;;;;;;4.78;2.10;;;20.60;39.30;;;;;;5021184;28;20376;-43
2021/03/08 04:06:17;;;;;;;3.45;2.13;;;20.60;39.30;;;;;;5021364;28;20405;-42
2021/03/08 04:08:48;;;;;;;5.43;1.92;;;20.60;39.30;;;;;;5019859;28;20025;-43
2021/03/08 04:11:16;;;;;;;3.63;2.38;;;20.60;39.30;;;;;;5021380;28;20117;-43
2021/03/08 04:13:43;;;;;;;6.45;2.95;;;20.60;39.30;;;;;;5018361;28;20030;-43
2021/03/08 04:16:10;;;;;;;5.00;3.10;;;20.60;39.30;;;;;;5019664;28;20040;-42
2021/03/08 04:18:37;;;;;;;3.03;2.03;;;20.60;39.30;;;;;;5019351;28;20038;-44
2021/03/08 04:21:04;;;;;;;2.65;1.88;;;20.60;39.30;;;;;;5020352;28;20082;-42
2021/03/08 04:23:31;;;;;;;3.03;2.28;;;20.60;39.30;;;;;;5019295;28;20026;-43
2021/03/08 04:25:59;;;;;;;3.80;2.58;;;20.60;39.30;;;;;;5017297;28;20030;-45
2021/03/08 04:28:25;;;;;;;2.75;2.03;;;20.60;39.30;;;;;;5018016;28;20414;-43
2021/03/08 04:30:50;;;;;;;2.78;2.00;;;20.60;39.40;;;;;;5022646;28;20108;-43
2021/03/08 04:33:17;;;;;;;5.30;2.30;;;20.60;39.40;;;;;;5023111;28;20462;-45
2021/03/08 04:35:47;;;;;;;4.68;2.50;;;20.60;39.40;;;;;;5022531;28;20081;-43
2021/03/08 04:38:14;;;;;;;3.03;2.40;;;20.60;39.50;;;;;;5019517;28;20025;-44
2021/03/08 04:40:41;;;;;;;5.53;2.33;;;20.60;39.50;;;;;;5018842;28;20045;-51
2021/03/08 04:43:08;;;;;;;4.63;2.40;;;20.60;39.50;;;;;;5018442;28;20038;-43
2021/03/08 04:45:34;;;;;;;4.30;2.13;;;20.60;39.50;;;;;;5018517;28;20036;-45
2021/03/08 04:48:04;;;;;;;5.55;2.42;;;20.60;39.50;;;;;;5018053;28;20089;-42
2021/03/08 04:50:30;;;;;;;5.85;2.35;;;20.60;39.50;;;;;;5017888;28;20028;-45
2021/03/08 04:52:56;;;;;;;3.60;2.35;;;20.60;39.50;;;;;;5018443;28;20455;-44
2021/03/08 04:55:26;;;;;;;4.15;2.30;;;20.60;39.50;;;;;;5021645;28;20061;-44
2021/03/08 04:57:52;;;;;;;5.35;2.38;;;20.60;39.50;;;;;;5001726;28;20155;-43
2021/03/08 05:00:19;;;;;;;4.00;2.50;;;20.60;39.50;;;;;;5020209;28;20108;-45
2021/03/08 05:02:47;;;;;;;7.43;2.58;;;20.60;39.50;;;;;;5017300;28;20037;-44
2021/03/08 05:05:13;;;;;;;5.40;2.30;;;20.60;39.50;;;;;;5004745;28;20459;-43
2021/03/08 05:07:44;;;;;;;3.45;2.22;;;20.60;39.50;;;;;;5023538;28;20044;-51
2021/03/08 05:10:18;;;;;;;5.90;2.80;;;20.60;39.50;;;;;;5020364;28;20022;-45
2021/03/08 05:12:45;;;;;;;3.28;2.17;;;20.60;39.60;;;;;;5021550;28;20034;-45
2021/03/08 05:15:12;;;;;;;7.95;2.78;;;20.60;39.50;;;;;;5023190;28;20026;-48
2021/03/08 05:17:40;;;;;;;6.57;3.15;;;20.60;39.50;;;;;;5023056;28;20048;-48
2021/03/08 05:20:09;;;;;;;3.80;2.22;;;20.60;39.60;;;;;;5023607;28;20026;-45
2021/03/08 05:22:36;;;;;;;4.88;2.58;;;20.60;39.50;;;;;;5021944;28;20398;-44
2021/03/08 05:25:03;;;;;;;4.85;2.20;;;20.60;39.50;;;;;;5020868;28;20541;-45
2021/03/08 05:27:30;;;;;;;6.20;2.58;;;20.60;39.50;;;;;;5023311;28;20047;-44
2021/03/08 05:29:58;;;;;;;4.32;2.30;;;20.60;39.60;;;;;;5020066;28;20025;-44
2021/03/08 05:32:49;;;;;;;5.30;2.33;;;20.60;39.60;;;;;;5024125;28;20037;-45
2021/03/08 05:35:15;;;;;;;4.67;2.40;;;20.60;39.50;;;;;;5009254;28;20050;-43
2021/03/08 05:37:42;;;;;;;5.50;2.60;;;20.60;39.60;;;;;;5019847;28;20073;-46
2021/03/08 05:40:26;;;;;;;6.43;2.25;;;20.60;39.60;;;;;;5021785;28;20502;-46
2021/03/08 05:43:03;;;;;;;4.68;2.03;;;20.60;39.50;;;;;;5020835;28;20145;-47
2021/03/08 05:45:35;;;;;;;6.28;2.50;;;20.60;39.50;;;;;;5022572;28;20476;-47
2021/03/08 05:48:40;;;;;;;4.15;2.63;;;20.60;39.50;;;;;;5022662;28;20150;-44
2021/03/08 05:51:27;;;;;;;3.65;2.35;;;20.60;39.50;;;;;;5022968;28;20101;-43
2021/03/08 05:54:01;;;;;;;7.18;2.40;;;20.60;39.50;;;;;;5021132;28;20053;-42
2021/03/08 05:56:56;;;;;;;6.32;2.25;;;20.60;39.50;;;;;;5006764;28;20080;-42
2021/03/08 05:59:35;;;;;;;5.75;2.45;;;20.60;39.50;;;;;;5013484;28;20105;-43
2021/03/08 06:02:39;;;;;;;5.20;2.20;;;20.60;39.50;;;;;;5027668;28;20052;-42
2021/03/08 06:05:19;;;;;;;5.43;2.33;;;20.60;39.50;;;;;;4951460;28;20039;-42
2021/03/08 06:08:22;;;;;;;5.75;3.25;;;20.60;39.50;;;;;;5020353;28;20087;-46
2021/03/08 06:11:11;;;;;;;4.57;2.58;;;20.60;39.40;;;;;;5012542;28;20485;-44
2021/03/08 06:13:47;;;;;;;2.90;2.20;;;20.60;39.40;;;;;;5024566;28;20478;-47
2021/03/08 06:16:20;;;;;;;3.92;2.40;;;20.60;39.40;;;;;;5022799;28;20045;-42
2021/03/08 06:18:47;;;;;;;5.15;2.58;;;20.60;39.40;;;;;;5024970;28;20048;-43
2021/03/08 06:21:14;;;;;;;4.55;2.95;;;20.60;39.40;;;;;;5032933;28;20028;-43
2021/03/08 06:23:44;;;;;;;7.13;3.20;;;20.60;39.50;;;;;;5032498;28;20501;-48
2021/03/08 06:26:11;;;;;;;4.60;2.63;;;20.60;39.40;;;;;;5014737;28;20356;-43
2021/03/08 06:28:38;;;;;;;6.18;2.60;;;20.60;39.60;;;;;;5015037;28;20068;-44
2021/03/08 06:31:04;;;;;;;7.60;2.63;;;20.60;39.80;;;;;;5031886;28;20113;-46
2021/03/08 06:33:30;;;;;;;7.93;2.50;;;20.60;40.30;;;;;;5032539;28;20393;-45
2021/03/08 06:35:59;;;;;;;4.25;2.85;;;20.60;40.30;;;;;;5010696;28;20046;-47
2021/03/08 06:38:26;;;;;;;3.90;2.33;;;20.70;40.40;;;;;;5029519;28;20126;-46
2021/03/08 06:40:52;;;;;;;7.07;2.72;;;20.60;40.30;;;;;;5031542;28;20078;-48
2021/03/08 06:43:18;;;;;;;4.72;2.00;;;20.60;40.30;;;;;;5032291;28;20059;-45
2021/03/08 06:45:43;;;;;;;5.70;2.58;;;20.60;40.40;;;;;;5020112;28;20037;-47
2021/03/08 06:48:09;;;;;;;6.15;2.95;;;20.70;40.50;;;;;;4994411;28;20459;-45
2021/03/08 06:50:35;;;;;;;4.82;2.63;;;20.70;40.60;;;;;;5012591;28;20479;-44
2021/03/08 06:53:02;;;;;;;6.05;2.25;;;20.70;40.70;;;;;;5011578;28;20061;-43
2021/03/08 06:55:27;;;;;;;4.28;2.10;;;20.70;40.70;;;;;;5012705;28;20083;-43
2021/03/08 06:57:53;;;;;;;9.40;2.72;;;20.70;40.80;;;;;;4994193;28;20030;-43
2021/03/08 07:00:19;;;;;;;8.07;3.00;;;20.80;41.50;;;;;;5012330;28;20033;-43
2021/03/08 07:02:46;;;;;;;6.03;2.00;;;20.80;41.10;;;;;;5019357;28;20041;-46
2021/03/08 07:05:13;;;;;;;8.45;2.95;;;20.80;41.20;;;;;;5022943;28;20041;-48
2021/03/08 07:07:58;;;;;;;6.45;2.42;;;20.80;41.40;;;;;;5025625;28;20521;-56
2021/03/08 07:10:32;;;;;;;13.20;3.22;;;20.80;41.30;;;;;;4994695;28;20372;-59
2021/03/08 07:12:58;;;;;;;11.18;3.22;;;20.90;41.70;;;;;;5022416;28;20025;-59
2021/03/08 07:15:24;;;;;;;16.20;3.15;;;20.90;42.00;;;;;;5031574;28;20025;-60
2021/03/08 07:17:51;;;;;;;14.85;3.13;;;20.80;41.90;;;;;;5030975;28;20030;-60
2021/03/08 07:20:18;;;;;;;10.40;2.97;;;20.80;41.90;;;;;;5032027;28;20504;-60
2021/03/08 07:22:47;;;;;;;9.85;3.38;;;20.80;41.90;;;;;;5025604;28;20037;-54
2021/03/08 07:25:27;;;;;;;16.50;4.43;;;20.80;42.00;;;;;;5012092;28;20034;-59
2021/03/08 07:27:58;;;;;;;16.25;3.20;;;20.80;42.00;;;;;;5011594;28;20459;-58
2021/03/08 07:30:30;;;;;;;8.60;3.10;;;20.80;41.90;;;;;;5018219;28;20059;-59
2021/03/08 07:33:12;;;;;;;8.15;3.03;;;20.80;41.80;;;;;;5031307;28;20456;-59
2021/03/08 07:35:45;;;;;;;12.40;4.23;;;20.80;41.80;;;;;;5029141;28;20475;-56
2021/03/08 07:38:13;;;;;;;9.95;3.33;;;20.70;41.70;;;;;;5028677;28;20463;-58
2021/03/08 07:40:42;;;;;;;9.88;3.30;;;20.80;41.70;;;;;;5031824;28;20032;-59
2021/03/08 07:43:18;;;;;;;9.65;3.17;;;20.70;41.60;;;;;;5026851;28;20035;-58
2021/03/08 07:45:45;;;;;;;14.27;3.00;;;20.70;41.60;;;;;;5014780;28;20041;-54
2021/03/08 07:48:16;;;;;;;15.45;3.70;;;20.70;41.60;;;;;;5001825;28;20382;-59
2021/03/08 07:50:44;;;;;;;7.55;3.38;;;20.70;41.50;;;;;;5011461;28;20109;-54
2021/03/08 07:53:31;;;;;;;8.68;2.92;;;20.70;41.50;;;;;;5028291;28;20033;-58
2021/03/08 07:55:58;;;;;;;7.10;3.05;;;20.70;41.50;;;;;;5028410;28;20040;-59
2021/03/08 07:58:29;;;;;;;7.15;3.58;;;20.70;41.50;;;;;;5028066;28;20029;-59
2021/03/08 08:00:56;;;;;;;7.10;2.83;;;20.70;41.40;;;;;;5029537;28;20033;-59
2021/03/08 08:03:22;;;;;;;8.32;3.92;;;20.70;41.40;;;;;;5031411;28;20098;-59
2021/03/08 08:05:53;;;;;;;6.45;3.50;;;20.70;41.30;;;;;;5027017;28;20070;-58
2021/03/08 08:08:18;;;;;;;8.53;2.97;;;20.70;41.30;;;;;;5023988;28;20034;-58
2021/03/08 08:10:45;;;;;;;6.45;3.00;;;20.70;41.30;;;;;;5028666;28;20030;-56
2021/03/08 08:13:12;;;;;;;6.68;3.28;;;20.70;41.30;;;;;;5029970;28;20099;-59
2021/03/08 08:15:42;;;;;;;6.20;3.33;;;20.70;41.20;;;;;;5028885;28;20028;-60
2021/03/08 08:18:12;;;;;;;6.80;3.00;;;20.70;41.10;;;;;;5029529;28;20053;-58
2021/03/08 08:20:40;;;;;;;6.32;2.75;;;20.70;41.10;;;;;;5013089;28;20462;-59
2021/03/08 08:23:07;;;;;;;7.85;3.13;;;20.70;41.10;;;;;;5021232;28;20120;-58
2021/03/08 08:25:33;;;;;;;6.75;3.20;;;20.70;41.10;;;;;;5031509;28;20028;-59
2021/03/08 08:27:59;;;;;;;6.95;3.20;;;20.70;41.10;;;;;;5028161;28;20033;-58
2021/03/08 08:30:28;;;;;;;5.63;2.80;;;20.70;41.10;;;;;;5030497;28;20040;-58
2021/03/08 08:32:56;;;;;;;5.68;2.83;;;20.70;41.00;;;;;;5028966;28;20076;-58
2021/03/08 08:35:27;;;;;;;5.90;3.13;;;20.70;41.00;;;;;;5026219;28;20048;-58
2021/03/08 08:38:07;;;;;;;9.80;2.75;;;20.70;41.00;;;;;;5028644;28;20298;-59
2021/03/08 08:40:40;;;;;;;4.75;2.90;;;20.70;41.00;;;;;;5034856;28;20378;-59
2021/03/08 08:43:14;;;;;;;5.00;2.42;;;20.70;41.00;;;;;;5030546;28;20244;-59
2021/03/08 08:45:41;;;;;;;7.47;3.00;;;20.70;41.00;;;;;;5025631;28;20467;-59
2021/03/08 08:48:07;;;;;;;7.97;3.03;;;20.70;40.90;;;;;;5028903;28;20106;-58
2021/03/08 08:50:50;;;;;;;5.32;2.60;;;20.70;40.90;;;;;;5014806;28;20481;-59
2021/03/08 08:53:44;;;;;;;5.55;2.75;;;20.70;40.90;;;;;;5034453;28;20029;-58
2021/03/08 08:56:10;;;;;;;7.30;2.70;;;20.70;41.00;;;;;;5031011;28;20045;-58
2021/03/08 08:58:48;;;;;;;5.22;2.67;;;20.70;41.10;;;;;;5033952;28;20022;-59
2021/03/08 09:01:16;;;;;;;6.70;2.45;;;20.70;41.10;;;;;;5033497;28;20025;-58
2021/03/08 09:04:00;;;;;;;8.88;2.70;;;20.70;41.20;;;;;;5034263;28;20124;-58
2021/03/08 09:07:09;;;;;;;9.18;2.88;;;20.70;41.70;;;;;;5028518;28;20386;-58
2021/03/08 09:09:35;;;;;;;9.85;3.90;;;20.70;41.70;;;;;;5032211;28;20033;-59
2021/03/08 09:12:06;;;;;;;9.23;3.10;;;20.70;41.60;;;;;;5005005;28;20422;-58
2021/03/08 09:14:47;;;;;;;5.30;2.38;;;20.70;41.70;;;;;;5033131;28;20026;-58
2021/03/08 09:17:20;;;;;;;7.13;2.55;;;20.70;41.60;;;;;;5025116;28;20082;-59
2021/03/08 09:19:49;;;;;;;5.88;2.50;;;20.70;41.60;;;;;;5018177;28;20133;-54
2021/03/08 09:22:24;;;;;;;7.68;3.10;;;20.70;41.50;;;;;;5033430;28;20037;-58
2021/03/08 09:24:52;;;;;;;7.68;2.42;;;20.70;41.50;;;;;;5033139;28;20021;-58
2021/03/08 09:27:38;;;;;;;6.22;2.70;;;20.70;41.50;;;;;;5034877;28;20072;-59
2021/03/08 09:30:10;;;;;;;5.13;2.50;;;20.70;41.50;;;;;;5016081;28;20030;-58
2021/03/08 09:32:45;;;;;;;5.72;2.80;;;20.80;41.50;;;;;;5026819;28;20025;-58
2021/03/08 09:35:12;;;;;;;6.93;2.33;;;20.80;41.50;;;;;;5028769;28;20521;-59
2021/03/08 09:37:40;;;;;;;6.65;2.42;;;20.70;41.50;;;;;;5025951;28;20037;-57
2021/03/08 09:40:06;;;;;;;3.60;2.50;;;20.70;41.40;;;;;;5032154;28;20036;-57
2021/03/08 09:42:36;;;;;;;4.57;1.88;;;20.70;41.40;;;;;;5032465;28;20056;-58
2021/03/08 09:45:18;;;;;;;7.47;2.65;;;20.80;41.40;;;;;;5025118;28;20048;-59
2021/03/08 09:47:45;;;;;;;3.55;2.38;;;20.80;41.30;;;;;;5031611;28;20043;-58
2021/03/08 09:50:16;;;;;;;5.95;2.42;;;20.80;42.00;;;;;;4996523;28;20029;-58
2021/03/08 09:52:43;;;;;;;8.10;3.80;;;20.70;41.30;;;;;;5027066;28;20429;-58
2021/03/08 09:55:14;;;;;;;5.05;2.50;;;20.80;41.30;;;;;;5024676;28;20092;-58
2021/03/08 09:57:42;;;;;;;5.95;2.40;;;20.70;41.20;;;;;;5031317;28;20052;-59
2021/03/08 10:00:29;;;;;;;3.97;2.03;;;20.80;41.20;;;;;;5020679;28;20026;-58
2021/03/08 10:02:59;;;;;;;4.43;2.35;;;20.80;41.20;;;;;;5021359;28;20458;-58
2021/03/08 10:05:45;;;;;;;5.28;2.40;;;20.80;41.30;;;;;;5024489;28;20025;-58
2021/03/08 10:08:13;;;;;;;4.30;2.10;;;20.70;41.10;;;;;;5013426;28;20025;-58
2021/03/08 10:10:40;;;;;;;4.82;2.53;;;20.80;41.10;;;;;;5014584;28;20021;-58
2021/03/08 10:13:06;;;;;;;6.15;2.97;;;20.70;41.10;;;;;;5017130;28;20055;-59
2021/03/08 10:15:51;;;;;;;5.10;2.25;;;20.70;41.00;;;;;;5001242;28;20048;-58
2021/03/08 10:18:18;;;;;;;5.25;2.35;;;20.70;41.00;;;;;;5022225;28;20036;-58
2021/03/08 10:20:49;;;;;;;4.60;2.10;;;20.70;41.10;;;;;;5015352;28;20043;-59
2021/03/08 10:23:16;;;;;;;4.43;2.33;;;20.70;41.00;;;;;;5028445;28;20065;-58
2021/03/08 10:25:42;;;;;;;4.65;2.08;;;20.70;41.00;;;;;;5012929;28;20475;-59
2021/03/08 10:28:08;;;;;;;3.75;2.03;;;20.80;41.00;;;;;;5020637;28;20030;-58
2021/03/08 10:30:34;;;;;;;4.05;1.80;;;20.70;40.90;;;;;;5023466;28;20029;-58
2021/03/08 10:33:01;;;;;;;4.60;2.20;;;20.70;40.90;;;;;;5031415;28;20030;-58
2021/03/08 10:35:28;;;;;;;4.55;2.22;;;20.70;40.80;;;;;;5029844;28;20061;-57
2021/03/08 10:37:54;;;;;;;3.30;1.90;;;20.70;40.80;;;;;;5020606;28;20053;-58
2021/03/08 10:40:22;;;;;;;3.38;2.08;;;20.70;40.90;;;;;;5007617;28;20119;-58
2021/03/08 10:42:48;;;;;;;9.05;3.97;;;20.70;40.80;;;;;;5032192;28;20033;-58
2021/03/08 10:45:15;;;;;;;2.67;1.90;;;20.70;40.70;;;;;;5023627;28;20029;-59
2021/03/08 10:47:41;;;;;;;4.00;2.20;;;20.70;40.70;;;;;;5021328;28;20099;-59
2021/03/08 10:50:07;;;;;;;6.22;2.53;;;20.70;40.70;;;;;;5019175;28;20061;-58
2021/03/08 10:52:33;;;;;;;4.57;2.00;;;20.70;40.70;;;;;;5026079;28;20033;-58
2021/03/08 10:54:59;;;;;;;3.80;2.13;;;20.70;40.60;;;;;;5023937;28;20037;-59
2021/03/08 10:57:27;;;;;;;3.33;1.90;;;20.70;40.60;;;;;;5012749;28;20080;-59
2021/03/08 10:59:54;;;;;;;2.60;1.98;;;20.70;40.60;;;;;;5011575;28;20529;-52
2021/03/08 11:02:20;;;;;;;3.10;1.50;;;20.70;40.60;;;;;;5011334;28;20038;-58
2021/03/08 11:04:48;;;;;;;3.75;2.03;;;20.80;40.60;;;;;;5018293;28;20029;-58
2021/03/08 11:07:15;;;;;;;2.25;1.60;;;20.70;40.60;;;;;;5019066;28;20045;-58
2021/03/08 11:09:46;;;;;;;2.92;1.70;;;20.70;40.60;;;;;;5014775;28;20021;-59
2021/03/08 11:12:20;;;;;;;3.60;1.90;;;20.70;40.60;;;;;;5030180;28;20029;-56
2021/03/08 11:14:49;;;;;;;1.92;1.70;;;20.80;40.50;;;;;;5018362;28;20030;-58
2021/03/08 11:17:15;;;;;;;2.28;1.63;;;20.70;40.40;;;;;;5011983;28;20029;-59
2021/03/08 11:19:40;;;;;;;2.17;1.50;;;20.70;40.50;;;;;;4999211;28;20038;-58
2021/03/08 11:22:14;;;;;;;4.28;1.92;;;20.70;40.40;;;;;;5020967;28;20041;-57
2021/03/08 11:24:51;;;;;;;3.35;1.52;;;20.80;40.40;;;;;;5012187;28;20030;-57
2021/03/08 11:27:25;;;;;;;2.53;1.50;;;20.70;40.30;;;;;;5025815;28;20034;-58
2021/03/08 11:29:57;;;;;;;3.67;1.88;;;20.70;40.30;;;;;;5011593;28;20052;-54
2021/03/08 11:32:28;;;;;;;2.13;1.67;;;20.80;40.40;;;;;;5013121;28;20034;-59
2021/03/08 11:34:54;;;;;;;4.17;2.10;;;20.80;40.40;;;;;;5011621;28;20120;-56
2021/03/08 11:37:21;;;;;;;2.70;1.80;;;20.70;40.30;;;;;;5023820;28;20030;-57
2021/03/08 11:39:52;;;;;;;3.97;1.70;;;20.70;40.30;;;;;;5024615;28;20046;-58
2021/03/08 11:42:20;;;;;;;2.87;1.70;;;20.70;40.40;;;;;;5028105;28;20075;-58
2021/03/08 11:44:46;;;;;;;2.40;1.60;;;20.70;40.40;;;;;;5027782;28;20041;-58
2021/03/08 11:47:13;;;;;;;6.43;2.50;;;20.80;40.50;;;;;;5011143;28;20616;-43
2021/03/08 11:49:39;;;;;;;2.42;1.80;;;20.80;40.50;;;;;;5019252;28;20064;-45
2021/03/08 11:52:05;;;;;;;4.43;1.73;;;20.80;40.40;;;;;;5022412;28;20034;-44
2021/03/08 11:54:31;;;;;;;3.08;1.50;;;20.80;40.50;;;;;;5023417;28;20087;-49
2021/03/08 11:56:59;;;;;;;5.65;2.20;;;20.80;40.40;;;;;;5025351;28;20033;-45
2021/03/08 11:59:24;;;;;;;2.30;1.70;;;20.80;40.50;;;;;;5024490;28;20036;-51
2021/03/08 12:01:50;;;;;;;3.80;1.52;;;20.70;40.40;;;;;;5030318;28;20037;-44
2021/03/08 12:04:16;;;;;;;2.33;1.60;;;20.80;40.50;;;;;;5011336;28;20045;-45
2021/03/08 12:06:41;;;;;;;5.18;1.80;;;20.80;40.40;;;;;;5026166;28;20042;-44
2021/03/08 12:09:07;;;;;;;4.18;1.80;;;20.80;40.40;;;;;;5029481;28;20035;-47
2021/03/08 12:11:32;;;;;;;3.83;1.60;;;20.80;40.60;;;;;;5011650;28;20033;-44
2021/03/08 12:13:58;;;;;;;4.40;1.95;;;20.80;40.70;;;;;;5026746;28;20030;-46
2021/03/08 12:16:24;;;;;;;5.00;2.53;;;20.80;40.70;;;;;;5006257;28;20381;-46
2021/03/08 12:18:49;;;;;;;2.45;1.75;;;20.80;40.80;;;;;;5019969;28;20026;-44
2021/03/08 12:21:15;;;;;;;4.60;2.42;;;20.80;40.80;;;;;;4999853;28;20740;-45
2021/03/08 12:23:42;;;;;;;3.85;2.30;;;20.80;40.80;;;;;;5034270;28;20063;-47
2021/03/08 12:26:08;;;;;;;3.90;2.35;;;20.80;40.60;;;;;;5022887;28;20026;-43
2021/03/08 12:28:33;;;;;;;3.72;2.55;;;20.80;40.70;;;;;;5016089;28;20038;-47
2021/03/08 12:30:59;;;;;;;3.95;2.28;;;20.80;40.60;;;;;;5014304;28;20033;-45
2021/03/08 12:33:25;;;;;;;4.90;2.45;;;20.80;40.70;;;;;;5009642;28;20048;-44
2021/03/08 12:35:51;;;;;;;5.05;2.30;;;20.80;40.50;;;;;;5026693;28;20054;-47
2021/03/08 12:38:16;;;;;;;4.05;2.65;;;20.80;40.50;;;;;;5030550;28;20422;-44
2021/03/08 12:40:42;;;;;;;3.88;2.15;;;20.80;40.60;;;;;;5032957;28;20437;-44
2021/03/08 12:43:08;;;;;;;2.83;2.05;;;20.80;40.50;;;;;;5026089;28;20117;-48
2021/03/08 12:45:34;;;;;;;3.50;2.08;;;20.80;40.40;;;;;;5006328;28;20029;-44
2021/03/08 12:48:00;;;;;;;3.28;2.15;;;20.80;40.40;;;;;;5032322;28;20553;-45
2021/03/08 12:50:25;;;;;;;3.42;1.88;;;20.80;40.40;;;;;;5024178;28;20101;-43
2021/03/08 12:52:51;;;;;;;5.28;2.38;;;20.90;40.30;;;;;;5020478;28;20096;-43
2021/03/08 12:55:17;;;;;;;3.05;2.10;;;20.80;40.30;;;;;;5013693;28;20026;-43
2021/03/08 12:57:42;;;;;;;3.67;1.85;;;20.90;40.30;;;;;;5018332;28;20034;-46